sensor_id;sensor_type;location;lat;lon;timestamp;temperature;humidity
67862;DHT22;54665;51.462;6.698;2022-10-16T00:01:56;12.18;97.89
67862;DHT22;54665;51.462;6.698;2022-10-16T00:04:22;12.10;97.80
67862;DHT22;54665;51.462;6.698;2022-10-16T00:06:47;12.10;97.86
67862;DHT22;54665;51.462;6.698;2022-10-16T00:09:13;12.01;97.83
67862;DHT22;54665;51.462;6.698;2022-10-16T00:11:39;12.01;97.83
67862;DHT22;54665;51.462;6.698;2022-10-16T00:14:11;12.00;97.84
67862;DHT22;54665;51.462;6.698;2022-10-16T00:16:38;11.98;97.87
67862;DHT22;54665;51.462;6.698;2022-10-16T00:19:03;12.01;97.88
67862;DHT22;54665;51.462;6.698;2022-10-16T00:21:30;12.10;97.93
67862;DHT22;54665;51.462;6.698;2022-10-16T00:24:01;12.08;97.87
67862;DHT22;54665;51.462;6.698;2022-10-16T00:26:28;12.11;97.88
67862;DHT22;54665;51.462;6.698;2022-10-16T00:28:54;12.10;97.86
67862;DHT22;54665;51.462;6.698;2022-10-16T00:31:21;12.04;97.83
67862;DHT22;54665;51.462;6.698;2022-10-16T00:33:47;12.17;97.90
67862;DHT22;54665;51.462;6.698;2022-10-16T00:36:16;12.30;97.90
67862;DHT22;54665;51.462;6.698;2022-10-16T00:38:42;12.27;97.85
67862;DHT22;54665;51.462;6.698;2022-10-16T00:41:11;12.22;97.81
67862;DHT22;54665;51.462;6.698;2022-10-16T00:46:26;12.24;97.76
67862;DHT22;54665;51.462;6.698;2022-10-16T00:49:17;12.27;97.75
67862;DHT22;54665;51.462;6.698;2022-10-16T00:51:47;12.25;97.69
67862;DHT22;54665;51.462;6.698;2022-10-16T00:54:16;12.22;97.74
67862;DHT22;54665;51.462;6.698;2022-10-16T00:56:43;12.28;97.74
67862;DHT22;54665;51.462;6.698;2022-10-16T00:59:15;12.18;97.60
67862;DHT22;54665;51.462;6.698;2022-10-16T01:01:41;12.07;97.53
67862;DHT22;54665;51.462;6.698;2022-10-16T01:04:07;12.07;97.57
67862;DHT22;54665;51.462;6.698;2022-10-16T01:07:11;12.02;97.59
67862;DHT22;54665;51.462;6.698;2022-10-16T01:20:37;11.91;97.74
67862;DHT22;54665;51.462;6.698;2022-10-16T01:23:07;11.86;97.74
67862;DHT22;54665;51.462;6.698;2022-10-16T01:28:22;11.87;97.82
67862;DHT22;54665;51.462;6.698;2022-10-16T01:30:50;11.90;97.86
67862;DHT22;54665;51.462;6.698;2022-10-16T01:33:24;11.93;97.84
67862;DHT22;54665;51.462;6.698;2022-10-16T01:35:59;12.02;97.87
67862;DHT22;54665;51.462;6.698;2022-10-16T01:38:34;12.13;97.84
67862;DHT22;54665;51.462;6.698;2022-10-16T01:41:05;12.20;97.83
67862;DHT22;54665;51.462;6.698;2022-10-16T01:43:37;12.20;97.83
67862;DHT22;54665;51.462;6.698;2022-10-16T01:46:05;12.25;97.85
67862;DHT22;54665;51.462;6.698;2022-10-16T01:48:31;12.28;97.80
67862;DHT22;54665;51.462;6.698;2022-10-16T01:51:07;12.35;97.80
67862;DHT22;54665;51.462;6.698;2022-10-16T01:53:34;12.37;97.79
67862;DHT22;54665;51.462;6.698;2022-10-16T01:56:02;12.38;97.75
67862;DHT22;54665;51.462;6.698;2022-10-16T01:58:30;12.38;97.71
67862;DHT22;54665;51.462;6.698;2022-10-16T02:01:01;12.34;97.72
67862;DHT22;54665;51.462;6.698;2022-10-16T02:03:27;12.30;97.62
67862;DHT22;54665;51.462;6.698;2022-10-16T02:05:55;12.25;97.53
67862;DHT22;54665;51.462;6.698;2022-10-16T02:08:23;12.17;97.51
67862;DHT22;54665;51.462;6.698;2022-10-16T02:10:49;12.05;97.52
67862;DHT22;54665;51.462;6.698;2022-10-16T02:13:25;12.00;97.55
67862;DHT22;54665;51.462;6.698;2022-10-16T02:15:53;11.98;97.54
67862;DHT22;54665;51.462;6.698;2022-10-16T02:18:20;11.91;97.61
67862;DHT22;54665;51.462;6.698;2022-10-16T02:23:41;11.94;97.66
67862;DHT22;54665;51.462;6.698;2022-10-16T02:26:13;12.04;97.66
67862;DHT22;54665;51.462;6.698;2022-10-16T02:28:44;12.10;97.69
67862;DHT22;54665;51.462;6.698;2022-10-16T02:31:12;12.04;97.61
67862;DHT22;54665;51.462;6.698;2022-10-16T02:33:42;11.98;97.55
67862;DHT22;54665;51.462;6.698;2022-10-16T02:36:09;11.95;97.56
67862;DHT22;54665;51.462;6.698;2022-10-16T02:38:36;12.01;97.61
67862;DHT22;54665;51.462;6.698;2022-10-16T02:41:03;12.02;97.60
67862;DHT22;54665;51.462;6.698;2022-10-16T02:43:28;12.04;97.56
67862;DHT22;54665;51.462;6.698;2022-10-16T02:45:53;12.02;97.52
67862;DHT22;54665;51.462;6.698;2022-10-16T02:48:19;12.02;97.49
67862;DHT22;54665;51.462;6.698;2022-10-16T02:50:44;11.98;97.47
67862;DHT22;54665;51.462;6.698;2022-10-16T02:53:10;11.97;97.45
67862;DHT22;54665;51.462;6.698;2022-10-16T02:55:35;12.02;97.40
67862;DHT22;54665;51.462;6.698;2022-10-16T02:58:00;12.02;97.42
67862;DHT22;54665;51.462;6.698;2022-10-16T03:00:26;12.01;97.38
67862;DHT22;54665;51.462;6.698;2022-10-16T03:02:51;12.07;97.28
67862;DHT22;54665;51.462;6.698;2022-10-16T03:05:17;12.05;97.20
67862;DHT22;54665;51.462;6.698;2022-10-16T03:07:42;12.08;97.19
67862;DHT22;54665;51.462;6.698;2022-10-16T03:10:08;12.02;97.14
67862;DHT22;54665;51.462;6.698;2022-10-16T03:12:33;12.02;97.17
67862;DHT22;54665;51.462;6.698;2022-10-16T03:14:59;11.98;97.15
67862;DHT22;54665;51.462;6.698;2022-10-16T03:17:25;11.97;97.17
67862;DHT22;54665;51.462;6.698;2022-10-16T03:19:50;11.93;97.13
67862;DHT22;54665;51.462;6.698;2022-10-16T03:22:16;11.93;97.11
67862;DHT22;54665;51.462;6.698;2022-10-16T03:24:41;11.93;97.11
67862;DHT22;54665;51.462;6.698;2022-10-16T03:27:08;11.91;97.07
67862;DHT22;54665;51.462;6.698;2022-10-16T03:29:33;11.90;97.10
67862;DHT22;54665;51.462;6.698;2022-10-16T03:31:59;11.86;97.02
67862;DHT22;54665;51.462;6.698;2022-10-16T03:34:24;11.83;97.02
67862;DHT22;54665;51.462;6.698;2022-10-16T03:36:50;11.83;97.08
67862;DHT22;54665;51.462;6.698;2022-10-16T03:39:16;11.77;97.04
67862;DHT22;54665;51.462;6.698;2022-10-16T03:41:41;11.71;97.07
67862;DHT22;54665;51.462;6.698;2022-10-16T03:44:07;11.63;97.06
67862;DHT22;54665;51.462;6.698;2022-10-16T03:46:32;11.57;97.09
67862;DHT22;54665;51.462;6.698;2022-10-16T03:48:57;11.56;97.08
67862;DHT22;54665;51.462;6.698;2022-10-16T03:51:23;11.50;97.10
67862;DHT22;54665;51.462;6.698;2022-10-16T03:53:48;11.47;97.13
67862;DHT22;54665;51.462;6.698;2022-10-16T03:56:14;11.44;97.19
67862;DHT22;54665;51.462;6.698;2022-10-16T03:58:39;11.44;97.24
67862;DHT22;54665;51.462;6.698;2022-10-16T04:01:05;11.56;97.29
67862;DHT22;54665;51.462;6.698;2022-10-16T04:03:30;11.55;97.11
67862;DHT22;54665;51.462;6.698;2022-10-16T04:05:56;11.57;97.18
67862;DHT22;54665;51.462;6.698;2022-10-16T04:08:21;11.62;97.17
67862;DHT22;54665;51.462;6.698;2022-10-16T04:10:47;11.70;97.16
67862;DHT22;54665;51.462;6.698;2022-10-16T04:13:12;11.71;97.04
67862;DHT22;54665;51.462;6.698;2022-10-16T04:15:38;11.70;97.03
67862;DHT22;54665;51.462;6.698;2022-10-16T04:18:04;11.69;96.93
67862;DHT22;54665;51.462;6.698;2022-10-16T04:20:30;11.73;96.95
67862;DHT22;54665;51.462;6.698;2022-10-16T04:22:55;11.73;96.92
67862;DHT22;54665;51.462;6.698;2022-10-16T04:25:21;11.69;96.86
67862;DHT22;54665;51.462;6.698;2022-10-16T04:27:47;11.70;96.87
67862;DHT22;54665;51.462;6.698;2022-10-16T04:30:12;11.71;96.89
67862;DHT22;54665;51.462;6.698;2022-10-16T04:32:38;11.73;96.87
67862;DHT22;54665;51.462;6.698;2022-10-16T04:35:03;11.71;96.82
67862;DHT22;54665;51.462;6.698;2022-10-16T04:37:29;11.67;96.76
67862;DHT22;54665;51.462;6.698;2022-10-16T04:39:54;11.70;96.81
67862;DHT22;54665;51.462;6.698;2022-10-16T04:42:20;11.70;96.63
67862;DHT22;54665;51.462;6.698;2022-10-16T04:44:46;11.74;96.58
67862;DHT22;54665;51.462;6.698;2022-10-16T04:47:11;11.70;96.60
67862;DHT22;54665;51.462;6.698;2022-10-16T04:49:37;11.74;96.55
67862;DHT22;54665;51.462;6.698;2022-10-16T04:52:03;11.77;96.51
67862;DHT22;54665;51.462;6.698;2022-10-16T04:54:29;11.77;96.45
67862;DHT22;54665;51.462;6.698;2022-10-16T04:56:54;11.80;96.44
67862;DHT22;54665;51.462;6.698;2022-10-16T04:59:21;11.80;96.32
67862;DHT22;54665;51.462;6.698;2022-10-16T05:01:47;11.74;96.28
67862;DHT22;54665;51.462;6.698;2022-10-16T05:04:13;11.79;96.36
67862;DHT22;54665;51.462;6.698;2022-10-16T05:06:40;11.80;96.41
67862;DHT22;54665;51.462;6.698;2022-10-16T05:09:06;11.81;96.43
67862;DHT22;54665;51.462;6.698;2022-10-16T05:11:31;11.83;96.37
67862;DHT22;54665;51.462;6.698;2022-10-16T05:13:57;11.83;96.36
67862;DHT22;54665;51.462;6.698;2022-10-16T05:16:22;11.93;96.19
67862;DHT22;54665;51.462;6.698;2022-10-16T05:18:48;11.93;96.07
67862;DHT22;54665;51.462;6.698;2022-10-16T05:21:13;11.90;95.96
67862;DHT22;54665;51.462;6.698;2022-10-16T05:23:39;11.83;96.08
67862;DHT22;54665;51.462;6.698;2022-10-16T05:26:04;11.84;96.12
67862;DHT22;54665;51.462;6.698;2022-10-16T05:28:31;11.83;96.08
67862;DHT22;54665;51.462;6.698;2022-10-16T05:30:57;11.86;96.22
67862;DHT22;54665;51.462;6.698;2022-10-16T05:33:24;11.91;96.23
67862;DHT22;54665;51.462;6.698;2022-10-16T05:35:51;11.95;96.06
67862;DHT22;54665;51.462;6.698;2022-10-16T05:38:17;11.94;96.08
67862;DHT22;54665;51.462;6.698;2022-10-16T05:40:43;11.97;96.04
67862;DHT22;54665;51.462;6.698;2022-10-16T05:43:15;11.93;96.04
67862;DHT22;54665;51.462;6.698;2022-10-16T05:45:40;11.95;96.06
67862;DHT22;54665;51.462;6.698;2022-10-16T05:48:05;11.94;96.03
67862;DHT22;54665;51.462;6.698;2022-10-16T05:50:31;11.89;96.07
67862;DHT22;54665;51.462;6.698;2022-10-16T05:52:57;11.90;96.20
67862;DHT22;54665;51.462;6.698;2022-10-16T05:55:22;11.79;96.13
67862;DHT22;54665;51.462;6.698;2022-10-16T05:57:47;11.77;96.16
67862;DHT22;54665;51.462;6.698;2022-10-16T06:00:13;11.74;96.22
67862;DHT22;54665;51.462;6.698;2022-10-16T06:02:38;11.66;96.26
67862;DHT22;54665;51.462;6.698;2022-10-16T06:05:04;11.60;96.33
67862;DHT22;54665;51.462;6.698;2022-10-16T06:07:34;11.59;96.48
67862;DHT22;54665;51.462;6.698;2022-10-16T06:10:01;11.55;96.54
67862;DHT22;54665;51.462;6.698;2022-10-16T06:12:26;11.56;96.62
67862;DHT22;54665;51.462;6.698;2022-10-16T06:14:52;11.59;96.69
67862;DHT22;54665;51.462;6.698;2022-10-16T06:17:17;11.65;96.66
67862;DHT22;54665;51.462;6.698;2022-10-16T06:19:43;11.77;96.70
67862;DHT22;54665;51.462;6.698;2022-10-16T06:22:08;11.79;96.59
67862;DHT22;54665;51.462;6.698;2022-10-16T06:24:34;11.90;96.51
67862;DHT22;54665;51.462;6.698;2022-10-16T06:26:59;11.90;96.46
67862;DHT22;54665;51.462;6.698;2022-10-16T06:29:24;11.91;96.41
67862;DHT22;54665;51.462;6.698;2022-10-16T06:31:50;11.94;96.31
67862;DHT22;54665;51.462;6.698;2022-10-16T06:34:15;11.97;96.31
67862;DHT22;54665;51.462;6.698;2022-10-16T06:36:40;12.01;96.20
67862;DHT22;54665;51.462;6.698;2022-10-16T06:39:06;12.07;96.17
67862;DHT22;54665;51.462;6.698;2022-10-16T06:41:32;12.02;96.09
67862;DHT22;54665;51.462;6.698;2022-10-16T06:44:07;11.97;96.10
67862;DHT22;54665;51.462;6.698;2022-10-16T06:46:33;11.89;96.06
67862;DHT22;54665;51.462;6.698;2022-10-16T06:48:58;11.76;96.11
67862;DHT22;54665;51.462;6.698;2022-10-16T06:51:24;11.71;96.24
67862;DHT22;54665;51.462;6.698;2022-10-16T06:53:55;11.79;96.40
67862;DHT22;54665;51.462;6.698;2022-10-16T06:56:24;11.83;96.34
67862;DHT22;54665;51.462;6.698;2022-10-16T06:58:50;11.86;96.38
67862;DHT22;54665;51.462;6.698;2022-10-16T07:01:18;11.89;96.29
67862;DHT22;54665;51.462;6.698;2022-10-16T07:03:45;11.86;96.31
67862;DHT22;54665;51.462;6.698;2022-10-16T07:06:12;11.79;96.32
67862;DHT22;54665;51.462;6.698;2022-10-16T07:08:40;11.86;96.47
67862;DHT22;54665;51.462;6.698;2022-10-16T07:11:08;11.87;96.39
67862;DHT22;54665;51.462;6.698;2022-10-16T07:13:34;11.90;96.37
67862;DHT22;54665;51.462;6.698;2022-10-16T07:16:07;11.97;96.39
67862;DHT22;54665;51.462;6.698;2022-10-16T07:18:33;12.00;96.26
67862;DHT22;54665;51.462;6.698;2022-10-16T07:23:30;12.05;96.15
67862;DHT22;54665;51.462;6.698;2022-10-16T07:25:55;12.11;96.11
67862;DHT22;54665;51.462;6.698;2022-10-16T07:28:21;12.22;96.21
67862;DHT22;54665;51.462;6.698;2022-10-16T07:30:47;12.37;95.93
67862;DHT22;54665;51.462;6.698;2022-10-16T07:33:12;12.52;95.79
67862;DHT22;54665;51.462;6.698;2022-10-16T07:35:38;12.63;95.31
67862;DHT22;54665;51.462;6.698;2022-10-16T07:38:03;12.90;94.90
67862;DHT22;54665;51.462;6.698;2022-10-16T07:40:28;13.74;93.74
67862;DHT22;54665;51.462;6.698;2022-10-16T07:42:54;14.18;91.66
67862;DHT22;54665;51.462;6.698;2022-10-16T07:45:19;14.28;89.53
67862;DHT22;54665;51.462;6.698;2022-10-16T07:47:44;14.70;89.30
67862;DHT22;54665;51.462;6.698;2022-10-16T07:50:10;15.00;86.45
67862;DHT22;54665;51.462;6.698;2022-10-16T07:52:35;15.41;86.86
67862;DHT22;54665;51.462;6.698;2022-10-16T07:55:00;15.58;85.55
67862;DHT22;54665;51.462;6.698;2022-10-16T07:57:26;15.82;84.48
67862;DHT22;54665;51.462;6.698;2022-10-16T07:59:51;15.75;82.40
67862;DHT22;54665;51.462;6.698;2022-10-16T08:02:17;15.81;83.22
67862;DHT22;54665;51.462;6.698;2022-10-16T08:04:42;15.96;82.26
67862;DHT22;54665;51.462;6.698;2022-10-16T08:07:08;16.68;80.05
67862;DHT22;54665;51.462;6.698;2022-10-16T08:09:34;17.01;78.77
67862;DHT22;54665;51.462;6.698;2022-10-16T08:11:59;16.99;77.70
67862;DHT22;54665;51.462;6.698;2022-10-16T08:14:24;17.20;77.70
67862;DHT22;54665;51.462;6.698;2022-10-16T08:16:50;17.39;77.37
67862;DHT22;54665;51.462;6.698;2022-10-16T08:19:15;17.14;77.60
67862;DHT22;54665;51.462;6.698;2022-10-16T08:21:40;16.65;79.18
67862;DHT22;54665;51.462;6.698;2022-10-16T08:24:06;16.57;79.09
67862;DHT22;54665;51.462;6.698;2022-10-16T08:26:31;16.37;80.14
67862;DHT22;54665;51.462;6.698;2022-10-16T08:28:56;16.31;80.70
67862;DHT22;54665;51.462;6.698;2022-10-16T08:31:22;16.20;80.04
67862;DHT22;54665;51.462;6.698;2022-10-16T08:33:48;16.13;80.14
67862;DHT22;54665;51.462;6.698;2022-10-16T08:36:15;16.16;80.86
67862;DHT22;54665;51.462;6.698;2022-10-16T08:38:40;15.67;81.17
67862;DHT22;54665;51.462;6.698;2022-10-16T08:41:35;15.46;83.21
67862;DHT22;54665;51.462;6.698;2022-10-16T08:49:35;15.44;82.84
67862;DHT22;54665;51.462;6.698;2022-10-16T08:52:02;15.73;82.73
67862;DHT22;54665;51.462;6.698;2022-10-16T08:54:41;16.77;79.77
67862;DHT22;54665;51.462;6.698;2022-10-16T08:57:19;17.01;78.08
67862;DHT22;54665;51.462;6.698;2022-10-16T08:59:45;16.64;78.97
67862;DHT22;54665;51.462;6.698;2022-10-16T09:02:29;16.16;79.75
67862;DHT22;54665;51.462;6.698;2022-10-16T09:08:01;15.97;80.89
67862;DHT22;54665;51.462;6.698;2022-10-16T09:13:30;16.26;79.85
67862;DHT22;54665;51.462;6.698;2022-10-16T09:16:12;16.36;79.17
67862;DHT22;54665;51.462;6.698;2022-10-16T09:21:40;16.16;80.00
67862;DHT22;54665;51.462;6.698;2022-10-16T09:24:14;16.27;80.26
67862;DHT22;54665;51.462;6.698;2022-10-16T09:26:40;16.43;78.74
67862;DHT22;54665;51.462;6.698;2022-10-16T09:29:06;16.48;79.35
67862;DHT22;54665;51.462;6.698;2022-10-16T09:31:31;16.43;79.07
67862;DHT22;54665;51.462;6.698;2022-10-16T09:33:59;16.33;79.41
67862;DHT22;54665;51.462;6.698;2022-10-16T09:36:26;16.41;80.00
67862;DHT22;54665;51.462;6.698;2022-10-16T09:39:08;16.65;77.37
67862;DHT22;54665;51.462;6.698;2022-10-16T09:41:35;16.74;77.86
67862;DHT22;54665;51.462;6.698;2022-10-16T09:44:03;16.84;77.05
67862;DHT22;54665;51.462;6.698;2022-10-16T09:46:35;17.06;76.01
67862;DHT22;54665;51.462;6.698;2022-10-16T09:49:25;17.46;76.50
67862;DHT22;54665;51.462;6.698;2022-10-16T09:51:51;17.59;73.68
67862;DHT22;54665;51.462;6.698;2022-10-16T09:54:27;17.53;73.33
67862;DHT22;54665;51.462;6.698;2022-10-16T09:56:52;17.26;74.79
67862;DHT22;54665;51.462;6.698;2022-10-16T09:59:28;17.32;74.91
67862;DHT22;54665;51.462;6.698;2022-10-16T10:01:56;17.56;74.70
67862;DHT22;54665;51.462;6.698;2022-10-16T10:04:24;17.63;73.02
67862;DHT22;54665;51.462;6.698;2022-10-16T10:06:57;17.40;72.83
67862;DHT22;54665;51.462;6.698;2022-10-16T10:09:25;17.33;73.72
67862;DHT22;54665;51.462;6.698;2022-10-16T10:14:30;17.62;72.24
67862;DHT22;54665;51.462;6.698;2022-10-16T10:22:18;17.94;71.64
67862;DHT22;54665;51.462;6.698;2022-10-16T10:24:54;17.87;71.52
67862;DHT22;54665;51.462;6.698;2022-10-16T10:27:24;17.73;71.77
67862;DHT22;54665;51.462;6.698;2022-10-16T10:30:01;17.88;71.68
67862;DHT22;54665;51.462;6.698;2022-10-16T10:32:41;18.07;70.04
67862;DHT22;54665;51.462;6.698;2022-10-16T10:43:43;18.55;69.72
67862;DHT22;54665;51.462;6.698;2022-10-16T10:46:24;18.77;69.17
67862;DHT22;54665;51.462;6.698;2022-10-16T10:57:21;19.34;66.06
67862;DHT22;54665;51.462;6.698;2022-10-16T10:59:56;19.35;66.64
67862;DHT22;54665;51.462;6.698;2022-10-16T11:03:06;19.43;63.41
67862;DHT22;54665;51.462;6.698;2022-10-16T11:05:38;19.82;64.44
67862;DHT22;54665;51.462;6.698;2022-10-16T11:08:17;19.89;62.65
67862;DHT22;54665;51.462;6.698;2022-10-16T11:10:54;19.92;64.09
67862;DHT22;54665;51.462;6.698;2022-10-16T11:13:32;20.22;62.86
67862;DHT22;54665;51.462;6.698;2022-10-16T11:16:03;20.26;62.96
67862;DHT22;54665;51.462;6.698;2022-10-16T11:18:45;20.73;61.84
67862;DHT22;54665;51.462;6.698;2022-10-16T11:21:14;20.81;61.25
67862;DHT22;54665;51.462;6.698;2022-10-16T11:23:55;20.81;61.63
67862;DHT22;54665;51.462;6.698;2022-10-16T11:26:35;20.73;61.75
67862;DHT22;54665;51.462;6.698;2022-10-16T11:29:04;20.84;59.80
67862;DHT22;54665;51.462;6.698;2022-10-16T11:31:44;20.90;59.84
67862;DHT22;54665;51.462;6.698;2022-10-16T11:34:21;20.49;59.43
67862;DHT22;54665;51.462;6.698;2022-10-16T11:39:23;19.91;62.09
67862;DHT22;54665;51.462;6.698;2022-10-16T11:42:26;19.96;62.31
67862;DHT22;54665;51.462;6.698;2022-10-16T11:44:51;20.47;61.16
67862;DHT22;54665;51.462;6.698;2022-10-16T11:47:30;20.36;58.67
67862;DHT22;54665;51.462;6.698;2022-10-16T11:50:04;20.63;58.63
67862;DHT22;54665;51.462;6.698;2022-10-16T11:53:45;20.57;58.51
67862;DHT22;54665;51.462;6.698;2022-10-16T11:55:49;20.94;58.07
67862;DHT22;54665;51.462;6.698;2022-10-16T11:58:58;20.76;59.52
67862;DHT22;54665;51.462;6.698;2022-10-16T12:01:32;21.39;58.08
67862;DHT22;54665;51.462;6.698;2022-10-16T12:06:48;21.10;58.72
67862;DHT22;54665;51.462;6.698;2022-10-16T12:09:23;21.14;58.02
67862;DHT22;54665;51.462;6.698;2022-10-16T12:11:49;20.88;57.89
67862;DHT22;54665;51.462;6.698;2022-10-16T12:16:59;20.70;58.00
67862;DHT22;54665;51.462;6.698;2022-10-16T12:19:28;20.54;59.04
67862;DHT22;54665;51.462;6.698;2022-10-16T12:21:57;20.80;58.65
67862;DHT22;54665;51.462;6.698;2022-10-16T12:24:35;20.90;56.96
67862;DHT22;54665;51.462;6.698;2022-10-16T12:27:03;20.36;58.79
67862;DHT22;54665;51.462;6.698;2022-10-16T12:29:36;19.79;60.64
67862;DHT22;54665;51.462;6.698;2022-10-16T12:32:18;19.28;62.68
67862;DHT22;54665;51.462;6.698;2022-10-16T12:34:47;19.21;62.66
67862;DHT22;54665;51.462;6.698;2022-10-16T12:37:26;19.32;61.31
67862;DHT22;54665;51.462;6.698;2022-10-16T12:39:54;19.51;63.44
67862;DHT22;54665;51.462;6.698;2022-10-16T12:44:54;19.26;62.35
67862;DHT22;54665;51.462;6.698;2022-10-16T12:47:47;18.98;61.63
67862;DHT22;54665;51.462;6.698;2022-10-16T12:53:00;18.89;64.04
67862;DHT22;54665;51.462;6.698;2022-10-16T12:55:26;19.07;62.72
67862;DHT22;54665;51.462;6.698;2022-10-16T12:58:12;19.20;63.63
67862;DHT22;54665;51.462;6.698;2022-10-16T13:00:50;19.44;61.43
67862;DHT22;54665;51.462;6.698;2022-10-16T13:09:17;19.68;62.69
67862;DHT22;54665;51.462;6.698;2022-10-16T13:14:43;19.86;61.09
67862;DHT22;54665;51.462;6.698;2022-10-16T13:23:15;19.75;61.32
67862;DHT22;54665;51.462;6.698;2022-10-16T13:26:03;19.54;62.05
67862;DHT22;54665;51.462;6.698;2022-10-16T13:28:32;19.19;62.32
67862;DHT22;54665;51.462;6.698;2022-10-16T13:30:59;18.98;63.10
67862;DHT22;54665;51.462;6.698;2022-10-16T13:33:35;18.85;62.25
67862;DHT22;54665;51.462;6.698;2022-10-16T13:36:02;18.86;62.90
67862;DHT22;54665;51.462;6.698;2022-10-16T13:38:31;18.86;62.94
67862;DHT22;54665;51.462;6.698;2022-10-16T13:41:05;18.83;62.64
67862;DHT22;54665;51.462;6.698;2022-10-16T13:43:46;18.86;63.03
67862;DHT22;54665;51.462;6.698;2022-10-16T13:46:13;19.00;64.42
67862;DHT22;54665;51.462;6.698;2022-10-16T13:48:39;19.11;63.85
67862;DHT22;54665;51.462;6.698;2022-10-16T13:51:10;19.24;65.07
67862;DHT22;54665;51.462;6.698;2022-10-16T13:53:37;19.37;62.04
67862;DHT22;54665;51.462;6.698;2022-10-16T13:56:22;19.60;63.37
67862;DHT22;54665;51.462;6.698;2022-10-16T13:59:04;19.75;61.11
67862;DHT22;54665;51.462;6.698;2022-10-16T14:01:33;19.55;62.24
67862;DHT22;54665;51.462;6.698;2022-10-16T14:04:04;19.35;64.80
67862;DHT22;54665;51.462;6.698;2022-10-16T14:06:31;19.14;64.98
67862;DHT22;54665;51.462;6.698;2022-10-16T14:09:01;18.90;64.00
67862;DHT22;54665;51.462;6.698;2022-10-16T14:11:27;18.66;66.88
67862;DHT22;54665;51.462;6.698;2022-10-16T14:13:54;18.60;66.51
67862;DHT22;54665;51.462;6.698;2022-10-16T14:16:22;18.63;66.69
67862;DHT22;54665;51.462;6.698;2022-10-16T14:19:06;18.68;66.95
67862;DHT22;54665;51.462;6.698;2022-10-16T14:21:40;18.72;65.96
67862;DHT22;54665;51.462;6.698;2022-10-16T14:24:26;18.73;66.56
67862;DHT22;54665;51.462;6.698;2022-10-16T14:26:52;18.75;65.61
67862;DHT22;54665;51.462;6.698;2022-10-16T14:29:20;18.77;67.20
67862;DHT22;54665;51.462;6.698;2022-10-16T14:31:59;18.98;68.19
67862;DHT22;54665;51.462;6.698;2022-10-16T14:34:33;19.07;67.73
67862;DHT22;54665;51.462;6.698;2022-10-16T14:37:01;19.10;65.87
67862;DHT22;54665;51.462;6.698;2022-10-16T14:39:32;19.04;66.04
67862;DHT22;54665;51.462;6.698;2022-10-16T14:41:58;19.02;67.05
67862;DHT22;54665;51.462;6.698;2022-10-16T14:44:31;18.83;67.56
67862;DHT22;54665;51.462;6.698;2022-10-16T14:46:57;18.70;66.89
67862;DHT22;54665;51.462;6.698;2022-10-16T14:49:24;18.70;67.76
67862;DHT22;54665;51.462;6.698;2022-10-16T14:51:51;18.72;67.25
67862;DHT22;54665;51.462;6.698;2022-10-16T14:54:18;18.68;67.07
67862;DHT22;54665;51.462;6.698;2022-10-16T14:56:57;18.69;69.83
67862;DHT22;54665;51.462;6.698;2022-10-16T14:59:39;18.63;70.62
67862;DHT22;54665;51.462;6.698;2022-10-16T15:04:46;18.27;69.75
67862;DHT22;54665;51.462;6.698;2022-10-16T15:07:12;18.14;71.65
67862;DHT22;54665;51.462;6.698;2022-10-16T15:09:37;17.96;72.31
67862;DHT22;54665;51.462;6.698;2022-10-16T15:12:03;17.84;74.86
67862;DHT22;54665;51.462;6.698;2022-10-16T15:14:28;17.76;75.47
67862;DHT22;54665;51.462;6.698;2022-10-16T15:16:54;17.69;75.59
67862;DHT22;54665;51.462;6.698;2022-10-16T15:19:19;17.63;76.12
67862;DHT22;54665;51.462;6.698;2022-10-16T15:21:45;17.53;75.58
67862;DHT22;54665;51.462;6.698;2022-10-16T15:24:12;17.43;76.16
67862;DHT22;54665;51.462;6.698;2022-10-16T15:26:38;17.36;75.86
67862;DHT22;54665;51.462;6.698;2022-10-16T15:29:03;17.30;76.80
67862;DHT22;54665;51.462;6.698;2022-10-16T15:31:30;17.22;77.81
67862;DHT22;54665;51.462;6.698;2022-10-16T15:33:55;17.22;78.98
67862;DHT22;54665;51.462;6.698;2022-10-16T15:36:29;17.12;77.61
67862;DHT22;54665;51.462;6.698;2022-10-16T15:38:55;17.09;78.36
67862;DHT22;54665;51.462;6.698;2022-10-16T15:41:21;16.98;78.11
67862;DHT22;54665;51.462;6.698;2022-10-16T15:43:48;16.88;79.37
67862;DHT22;54665;51.462;6.698;2022-10-16T15:46:15;16.71;79.58
67862;DHT22;54665;51.462;6.698;2022-10-16T15:48:41;16.57;79.05
67862;DHT22;54665;51.462;6.698;2022-10-16T15:51:08;16.51;79.10
67862;DHT22;54665;51.462;6.698;2022-10-16T15:53:35;16.40;79.06
67862;DHT22;54665;51.462;6.698;2022-10-16T15:56:03;16.31;79.17
67862;DHT22;54665;51.462;6.698;2022-10-16T15:58:29;16.23;80.36
67862;DHT22;54665;51.462;6.698;2022-10-16T16:00:59;16.10;81.05
67862;DHT22;54665;51.462;6.698;2022-10-16T16:03:29;15.99;81.40
67862;DHT22;54665;51.462;6.698;2022-10-16T16:05:54;15.90;81.49
67862;DHT22;54665;51.462;6.698;2022-10-16T16:08:20;15.85;81.64
67862;DHT22;54665;51.462;6.698;2022-10-16T16:10:57;15.81;81.98
67862;DHT22;54665;51.462;6.698;2022-10-16T16:13:22;15.70;82.56
67862;DHT22;54665;51.462;6.698;2022-10-16T16:15:47;15.58;83.20
67862;DHT22;54665;51.462;6.698;2022-10-16T16:18:13;15.44;83.65
67862;DHT22;54665;51.462;6.698;2022-10-16T16:20:38;15.34;83.87
67862;DHT22;54665;51.462;6.698;2022-10-16T16:23:03;15.27;84.19
67862;DHT22;54665;51.462;6.698;2022-10-16T16:25:29;15.14;84.01
67862;DHT22;54665;51.462;6.698;2022-10-16T16:27:54;15.12;84.13
67862;DHT22;54665;51.462;6.698;2022-10-16T16:30:20;15.04;83.99
67862;DHT22;54665;51.462;6.698;2022-10-16T16:32:45;14.95;84.12
67862;DHT22;54665;51.462;6.698;2022-10-16T16:35:11;14.84;84.29
67862;DHT22;54665;51.462;6.698;2022-10-16T16:37:36;14.73;84.40
67862;DHT22;54665;51.462;6.698;2022-10-16T16:40:02;14.64;84.97
67862;DHT22;54665;51.462;6.698;2022-10-16T16:42:27;14.55;85.30
67862;DHT22;54665;51.462;6.698;2022-10-16T16:44:53;14.55;85.70
67862;DHT22;54665;51.462;6.698;2022-10-16T16:47:19;14.44;85.84
67862;DHT22;54665;51.462;6.698;2022-10-16T16:49:44;14.39;86.26
67862;DHT22;54665;51.462;6.698;2022-10-16T16:52:11;14.32;87.05
67862;DHT22;54665;51.462;6.698;2022-10-16T16:54:37;14.23;87.52
67862;DHT22;54665;51.462;6.698;2022-10-16T16:57:02;14.22;87.46
67862;DHT22;54665;51.462;6.698;2022-10-16T16:59:29;14.18;87.47
67862;DHT22;54665;51.462;6.698;2022-10-16T17:01:58;14.13;87.50
67862;DHT22;54665;51.462;6.698;2022-10-16T17:04:24;14.06;87.50
67862;DHT22;54665;51.462;6.698;2022-10-16T17:06:49;14.00;87.56
67862;DHT22;54665;51.462;6.698;2022-10-16T17:09:14;13.97;87.77
67862;DHT22;54665;51.462;6.698;2022-10-16T17:11:40;13.94;87.79
67862;DHT22;54665;51.462;6.698;2022-10-16T17:14:08;13.98;88.00